Aérodrome :
LOGIN :

S'inscrire | Disclaimer

   EN    FR    IT 

 










Légende :    VFR   VFR Marginal   IFR   IFR Intensif   IFR Très Intensif
Visi : 
Plafond : 
>= 8 km
>= 3000ft
5 à 8 km
1000 à 3000 ft
1500m à 5 km
500 à 1000 ft
800 à 1500m
200 à 500 ft
< 800m
< 200 ft
Symboles :   Orages  Brouillard  Fortes neiges  Fortes précipitations  Vent > 20 kt
SIGMETs :   Divers  Orages  Givrage  Turbulence  Onde Orograph.  Cendres Volcan.







- Altitude de l'aérodrome : 538 ft
- Code IATA : TNF
- Voir les cartes d'approche


LFPN - Toussus Le Noble

DERNIER METAR :
  • 211000Z AUTO 28017G31KT 9999 SCT033 16/08 Q1014 NOSIG

METARs EXPIRÉS :
  • 210930Z AUTO 28014KT 250V310 9999 SCT030 15/09 Q1013 TEMPO 28015G28KT
  • 210900Z AUTO 29013KT 260V320 CAVOK 15/10 Q1013 TEMPO 28015G28KT
  • 210830Z AUTO 27011KT 240V300 CAVOK 14/11 Q1012 TEMPO 29015G28KT
  • 210800Z AUTO 27011KT 240V300 9999 FEW019 SCT048 BKN150 14/11 Q1012 TEMPO 29015G28KT
  • 210730Z AUTO 27011KT 230V300 9999 BKN037 OVC074 14/12 Q1011 TEMPO 29015G28KT

TAF TAF LFPN
Valide du 21 à 09h jusqu'au 21 à 18h UTC


210800Z 2109/2118 28012KT 9999 BKN030
TEMPO 2109/2115 28015G28KT
ATIS : +33 1 39 56 54 70
Pas de NOTAMs connus pour ce terrain.



MET'MAP, la Météo Aéronautique d'un coup d'oeil ! - Copyright ORBIFLY Décembre 2007 - Disclaimer

ORBIFLY MET'MAP TEAM :

Programmation & Développement : Alexandra Zaïnal
Conception & Développement : Baudouin d'Aumeries
Co-Programmation & Développement : Marc-Olivier Méhu
Soutien technique & logistique : Manuel Goepfert

Contact : metmap@orbifly.com




SOURCES & CREDITS :

   NOAA